sensor_id;sensor_type;location;lat;lon;timestamp;pressure;altitude;pressure_sealevel;temperature
15453;BMP280;7827;53.594;9.938;2022-07-23T00:01:53;152836.41;;;17.94
15453;BMP280;7827;53.594;9.938;2022-07-23T00:04:22;152832.66;;;17.93
15453;BMP280;7827;53.594;9.938;2022-07-23T00:06:51;152846.50;;;17.98
15453;BMP280;7827;53.594;9.938;2022-07-23T00:09:20;152835.19;;;17.94
15453;BMP280;7827;53.594;9.938;2022-07-23T00:11:48;152843.97;;;17.97
15453;BMP280;7827;53.594;9.938;2022-07-23T00:14:16;152838.94;;;17.95
15453;BMP280;7827;53.594;9.938;2022-07-23T00:16:44;152843.97;;;17.97
15453;BMP280;7827;53.594;9.938;2022-07-23T00:19:13;152828.88;;;17.91
15453;BMP280;7827;53.594;9.938;2022-07-23T00:21:42;152821.31;;;17.88
15453;BMP280;7827;53.594;9.938;2022-07-23T00:24:11;152825.09;;;17.90
15453;BMP280;7827;53.594;9.938;2022-07-23T00:26:39;152815.06;;;17.86
15453;BMP280;7827;53.594;9.938;2022-07-23T00:29:08;152811.28;;;17.84
15453;BMP280;7827;53.594;9.938;2022-07-23T00:31:36;152793.63;;;17.77
15453;BMP280;7827;53.594;9.938;2022-07-23T00:34:04;152770.97;;;17.68
15453;BMP280;7827;53.594;9.938;2022-07-23T00:36:33;152765.91;;;17.66
15453;BMP280;7827;53.594;9.938;2022-07-23T00:39:01;152768.44;;;17.67
15453;BMP280;7827;53.594;9.938;2022-07-23T00:41:32;152750.78;;;17.60
15453;BMP280;7827;53.594;9.938;2022-07-23T00:44:15;152752.06;;;17.61
15453;BMP280;7827;53.594;9.938;2022-07-23T00:46:49;152750.78;;;17.60
15453;BMP280;7827;53.594;9.938;2022-07-23T00:49:20;152748.31;;;17.59
15453;BMP280;7827;53.594;9.938;2022-07-23T00:51:49;152740.75;;;17.57
15453;BMP280;7827;53.594;9.938;2022-07-23T00:54:19;152738.22;;;17.56
15453;BMP280;7827;53.594;9.938;2022-07-23T00:56:49;152733.19;;;17.54
15453;BMP280;7827;53.594;9.938;2022-07-23T00:59:17;152720.56;;;17.49
15453;BMP280;7827;53.594;9.938;2022-07-23T01:01:46;152714.31;;;17.46
15453;BMP280;7827;53.594;9.938;2022-07-23T01:04:16;152697.91;;;17.40
15453;BMP280;7827;53.594;9.938;2022-07-23T01:06:45;152708.00;;;17.44
15453;BMP280;7827;53.594;9.938;2022-07-23T01:09:14;152710.53;;;17.45
15453;BMP280;7827;53.594;9.938;2022-07-23T01:11:43;152684.06;;;17.34
15453;BMP280;7827;53.594;9.938;2022-07-23T01:14:15;152665.19;;;17.27
15453;BMP280;7827;53.594;9.938;2022-07-23T01:16:46;152666.47;;;17.27
15453;BMP280;7827;53.594;9.938;2022-07-23T01:19:17;152668.97;;;17.28
15453;BMP280;7827;53.594;9.938;2022-07-23T01:21:49;152672.72;;;17.30
15453;BMP280;7827;53.594;9.938;2022-07-23T01:24:19;152655.16;;;17.23
15453;BMP280;7827;53.594;9.938;2022-07-23T01:26:57;152651.38;;;17.21
15453;BMP280;7827;53.594;9.938;2022-07-23T01:29:26;152653.84;;;17.22
15453;BMP280;7827;53.594;9.938;2022-07-23T01:31:59;152638.69;;;17.16
15453;BMP280;7827;53.594;9.938;2022-07-23T01:34:27;152645.00;;;17.19
15453;BMP280;7827;53.594;9.938;2022-07-23T01:36:56;152634.91;;;17.15
15453;BMP280;7827;53.594;9.938;2022-07-23T01:39:25;152629.91;;;17.13
15453;BMP280;7827;53.594;9.938;2022-07-23T01:41:54;152619.81;;;17.09
15453;BMP280;7827;53.594;9.938;2022-07-23T01:44:23;152609.78;;;17.05
15453;BMP280;7827;53.594;9.938;2022-07-23T01:46:52;152613.56;;;17.07
15453;BMP280;7827;53.594;9.938;2022-07-23T01:49:21;152627.38;;;17.12
15453;BMP280;7827;53.594;9.938;2022-07-23T01:52:15;152628.66;;;17.12
15453;BMP280;7827;53.594;9.938;2022-07-23T01:54:49;152631.16;;;17.13
15453;BMP280;7827;53.594;9.938;2022-07-23T01:57:17;152626.13;;;17.11
15453;BMP280;7827;53.594;9.938;2022-07-23T01:59:46;152614.81;;;17.07
15453;BMP280;7827;53.594;9.938;2022-07-23T02:02:14;152611.03;;;17.06
15453;BMP280;7827;53.594;9.938;2022-07-23T02:04:43;152624.88;;;17.11
15453;BMP280;7827;53.594;9.938;2022-07-23T02:07:11;152642.47;;;17.18
15453;BMP280;7827;53.594;9.938;2022-07-23T02:09:40;152642.47;;;17.18
15453;BMP280;7827;53.594;9.938;2022-07-23T02:12:09;152646.25;;;17.19
15453;BMP280;7827;53.594;9.938;2022-07-23T02:14:38;152619.81;;;17.09
15453;BMP280;7827;53.594;9.938;2022-07-23T02:17:07;152629.91;;;17.13
15453;BMP280;7827;53.594;9.938;2022-07-23T02:19:36;152623.59;;;17.10
15453;BMP280;7827;53.594;9.938;2022-07-23T02:22:04;152634.91;;;17.15
15453;BMP280;7827;53.594;9.938;2022-07-23T02:24:32;152641.22;;;17.17
15453;BMP280;7827;53.594;9.938;2022-07-23T02:27:01;152640.00;;;17.17
15453;BMP280;7827;53.594;9.938;2022-07-23T02:29:31;152629.91;;;17.13
15453;BMP280;7827;53.594;9.938;2022-07-23T02:31:59;152607.25;;;17.04
15453;BMP280;7827;53.594;9.938;2022-07-23T02:34:27;152597.16;;;17.00
15453;BMP280;7827;53.594;9.938;2022-07-23T02:36:55;152574.53;;;16.91
15453;BMP280;7827;53.594;9.938;2022-07-23T02:39:26;152572.00;;;16.90
15453;BMP280;7827;53.594;9.938;2022-07-23T02:41:54;152564.44;;;16.87
15453;BMP280;7827;53.594;9.938;2022-07-23T02:44:23;152568.22;;;16.89
15453;BMP280;7827;53.594;9.938;2022-07-23T02:46:54;152563.19;;;16.87
15453;BMP280;7827;53.594;9.938;2022-07-23T02:49:23;152564.44;;;16.87
15453;BMP280;7827;53.594;9.938;2022-07-23T02:51:52;152563.19;;;16.87
15453;BMP280;7827;53.594;9.938;2022-07-23T02:54:20;152575.75;;;16.92
15453;BMP280;7827;53.594;9.938;2022-07-23T02:56:48;152564.44;;;16.87
15453;BMP280;7827;53.594;9.938;2022-07-23T02:59:18;152546.84;;;16.80
15453;BMP280;7827;53.594;9.938;2022-07-23T03:01:47;152551.88;;;16.82
15453;BMP280;7827;53.594;9.938;2022-07-23T03:04:18;152559.41;;;16.85
15453;BMP280;7827;53.594;9.938;2022-07-23T03:06:47;152565.72;;;16.88
15453;BMP280;7827;53.594;9.938;2022-07-23T03:09:15;152554.41;;;16.83
15453;BMP280;7827;53.594;9.938;2022-07-23T03:11:43;152561.97;;;16.86
15453;BMP280;7827;53.594;9.938;2022-07-23T03:14:12;152577.06;;;16.92
15453;BMP280;7827;53.594;9.938;2022-07-23T03:16:41;152560.66;;;16.86
15453;BMP280;7827;53.594;9.938;2022-07-23T03:19:09;152558.19;;;16.85
15453;BMP280;7827;53.594;9.938;2022-07-23T03:21:39;152539.31;;;16.77
15453;BMP280;7827;53.594;9.938;2022-07-23T03:24:08;152549.34;;;16.81
15453;BMP280;7827;53.594;9.938;2022-07-23T03:26:37;152559.41;;;16.85
15453;BMP280;7827;53.594;9.938;2022-07-23T03:29:06;152554.41;;;16.83
15453;BMP280;7827;53.594;9.938;2022-07-23T03:31:35;152555.66;;;16.84
15453;BMP280;7827;53.594;9.938;2022-07-23T03:34:03;152573.28;;;16.91
15453;BMP280;7827;53.594;9.938;2022-07-23T03:36:31;152572.00;;;16.90
15453;BMP280;7827;53.594;9.938;2022-07-23T03:39:02;152569.50;;;16.89
15453;BMP280;7827;53.594;9.938;2022-07-23T03:41:31;152556.88;;;16.84
15453;BMP280;7827;53.594;9.938;2022-07-23T03:44:00;152536.78;;;16.76
15453;BMP280;7827;53.594;9.938;2022-07-23T03:46:28;152511.59;;;16.66
15453;BMP280;7827;53.594;9.938;2022-07-23T03:48:57;152521.69;;;16.70
15453;BMP280;7827;53.594;9.938;2022-07-23T03:51:26;152514.13;;;16.67
15453;BMP280;7827;53.594;9.938;2022-07-23T03:53:54;152521.69;;;16.70
15453;BMP280;7827;53.594;9.938;2022-07-23T03:56:24;152540.56;;;16.78
15453;BMP280;7827;53.594;9.938;2022-07-23T03:58:53;152543.06;;;16.79
15453;BMP280;7827;53.594;9.938;2022-07-23T04:01:21;152551.88;;;16.82
15453;BMP280;7827;53.594;9.938;2022-07-23T04:03:49;152566.97;;;16.88
15453;BMP280;7827;53.594;9.938;2022-07-23T04:06:18;152580.81;;;16.94
15453;BMP280;7827;53.594;9.938;2022-07-23T04:08:47;152597.16;;;17.00
15453;BMP280;7827;53.594;9.938;2022-07-23T04:11:15;152611.03;;;17.06
15453;BMP280;7827;53.594;9.938;2022-07-23T04:13:45;152616.03;;;17.07
15453;BMP280;7827;53.594;9.938;2022-07-23T04:16:14;152629.91;;;17.13
15453;BMP280;7827;53.594;9.938;2022-07-23T04:18:42;152631.16;;;17.13
15453;BMP280;7827;53.594;9.938;2022-07-23T04:21:15;152612.28;;;17.06
15453;BMP280;7827;53.594;9.938;2022-07-23T04:23:45;152611.03;;;17.06
15453;BMP280;7827;53.594;9.938;2022-07-23T04:26:14;152589.63;;;16.97
15453;BMP280;7827;53.594;9.938;2022-07-23T04:28:47;152602.25;;;17.02
15453;BMP280;7827;53.594;9.938;2022-07-23T04:31:16;152624.88;;;17.11
15453;BMP280;7827;53.594;9.938;2022-07-23T04:33:44;152623.59;;;17.10
15453;BMP280;7827;53.594;9.938;2022-07-23T04:36:12;152616.03;;;17.07
15453;BMP280;7827;53.594;9.938;2022-07-23T04:38:41;152622.34;;;17.10
15453;BMP280;7827;53.594;9.938;2022-07-23T04:41:09;152619.81;;;17.09
15453;BMP280;7827;53.594;9.938;2022-07-23T04:43:39;152611.03;;;17.06
15453;BMP280;7827;53.594;9.938;2022-07-23T04:46:09;152603.47;;;17.03
15453;BMP280;7827;53.594;9.938;2022-07-23T04:48:45;152602.25;;;17.02
15453;BMP280;7827;53.594;9.938;2022-07-23T04:51:15;152613.56;;;17.07
15453;BMP280;7827;53.594;9.938;2022-07-23T04:53:44;152607.25;;;17.04
15453;BMP280;7827;53.594;9.938;2022-07-23T04:56:12;152589.63;;;16.97
15453;BMP280;7827;53.594;9.938;2022-07-23T04:58:40;152579.53;;;16.93
15453;BMP280;7827;53.594;9.938;2022-07-23T05:01:10;152575.75;;;16.92
15453;BMP280;7827;53.594;9.938;2022-07-23T05:03:39;152577.06;;;16.92
15453;BMP280;7827;53.594;9.938;2022-07-23T05:06:07;152574.53;;;16.91
15453;BMP280;7827;53.594;9.938;2022-07-23T05:08:36;152554.41;;;16.83
15453;BMP280;7827;53.594;9.938;2022-07-23T05:11:05;152561.97;;;16.86
15453;BMP280;7827;53.594;9.938;2022-07-23T05:13:33;152587.09;;;16.96
15453;BMP280;7827;53.594;9.938;2022-07-23T05:16:01;152606.00;;;17.04
15453;BMP280;7827;53.594;9.938;2022-07-23T05:18:33;152592.16;;;16.98
15453;BMP280;7827;53.594;9.938;2022-07-23T05:21:01;152582.06;;;16.94
15453;BMP280;7827;53.594;9.938;2022-07-23T05:23:29;152599.69;;;17.01
15453;BMP280;7827;53.594;9.938;2022-07-23T05:25:58;152599.69;;;17.01
15453;BMP280;7827;53.594;9.938;2022-07-23T05:28:27;152583.31;;;16.95
15453;BMP280;7827;53.594;9.938;2022-07-23T05:30:55;152614.81;;;17.07
15453;BMP280;7827;53.594;9.938;2022-07-23T05:33:24;152629.91;;;17.13
15453;BMP280;7827;53.594;9.938;2022-07-23T05:36:00;152619.81;;;17.09
15453;BMP280;7827;53.594;9.938;2022-07-23T05:38:30;152617.34;;;17.08
15453;BMP280;7827;53.594;9.938;2022-07-23T05:41:00;152627.38;;;17.12
15453;BMP280;7827;53.594;9.938;2022-07-23T05:43:29;152645.00;;;17.19
15453;BMP280;7827;53.594;9.938;2022-07-23T05:46:00;152652.59;;;17.22
15453;BMP280;7827;53.594;9.938;2022-07-23T05:48:29;152657.63;;;17.24
15453;BMP280;7827;53.594;9.938;2022-07-23T05:51:03;152656.38;;;17.23
15453;BMP280;7827;53.594;9.938;2022-07-23T05:53:35;152665.19;;;17.27
15453;BMP280;7827;53.594;9.938;2022-07-23T05:56:07;152674.03;;;17.30
15453;BMP280;7827;53.594;9.938;2022-07-23T05:58:36;152705.47;;;17.43
15453;BMP280;7827;53.594;9.938;2022-07-23T06:01:05;152714.31;;;17.46
15453;BMP280;7827;53.594;9.938;2022-07-23T06:03:41;152708.00;;;17.44
15453;BMP280;7827;53.594;9.938;2022-07-23T06:06:11;152714.31;;;17.46
15453;BMP280;7827;53.594;9.938;2022-07-23T06:08:42;152718.09;;;17.48
15453;BMP280;7827;53.594;9.938;2022-07-23T06:11:11;152708.00;;;17.44
15453;BMP280;7827;53.594;9.938;2022-07-23T06:13:39;152715.56;;;17.47
15453;BMP280;7827;53.594;9.938;2022-07-23T06:16:08;152740.75;;;17.57
15453;BMP280;7827;53.594;9.938;2022-07-23T06:18:36;152748.31;;;17.59
15453;BMP280;7827;53.594;9.938;2022-07-23T06:21:05;152743.22;;;17.57
15453;BMP280;7827;53.594;9.938;2022-07-23T06:23:55;152755.84;;;17.62
15453;BMP280;7827;53.594;9.938;2022-07-23T06:26:24;152765.91;;;17.66
15453;BMP280;7827;53.594;9.938;2022-07-23T06:28:52;152753.31;;;17.61
15453;BMP280;7827;53.594;9.938;2022-07-23T06:31:20;152758.34;;;17.63
15453;BMP280;7827;53.594;9.938;2022-07-23T06:33:48;152760.88;;;17.64
15453;BMP280;7827;53.594;9.938;2022-07-23T06:36:17;152778.53;;;17.71
15453;BMP280;7827;53.594;9.938;2022-07-23T06:38:46;152787.31;;;17.75
15453;BMP280;7827;53.594;9.938;2022-07-23T06:41:17;152803.72;;;17.81
15453;BMP280;7827;53.594;9.938;2022-07-23T06:43:45;152831.41;;;17.92
15453;BMP280;7827;53.594;9.938;2022-07-23T06:46:15;152832.66;;;17.93
15453;BMP280;7827;53.594;9.938;2022-07-23T06:48:44;152830.16;;;17.92
15453;BMP280;7827;53.594;9.938;2022-07-23T06:51:12;152827.63;;;17.91
15453;BMP280;7827;53.594;9.938;2022-07-23T06:53:41;152817.53;;;17.87
15453;BMP280;7827;53.594;9.938;2022-07-23T06:56:09;152806.19;;;17.82
15453;BMP280;7827;53.594;9.938;2022-07-23T06:58:40;152786.06;;;17.74
15453;BMP280;7827;53.594;9.938;2022-07-23T07:01:09;152794.88;;;17.78
15453;BMP280;7827;53.594;9.938;2022-07-23T07:03:37;152822.59;;;17.89
15453;BMP280;7827;53.594;9.938;2022-07-23T07:06:05;152851.53;;;18.00
15453;BMP280;7827;53.594;9.938;2022-07-23T07:08:33;152847.75;;;17.99
15453;BMP280;7827;53.594;9.938;2022-07-23T07:11:03;152838.94;;;17.95
15453;BMP280;7827;53.594;9.938;2022-07-23T07:13:31;152783.53;;;17.73
15453;BMP280;7827;53.594;9.938;2022-07-23T07:16:01;152753.31;;;17.61
15453;BMP280;7827;53.594;9.938;2022-07-23T07:18:29;152692.91;;;17.38
15453;BMP280;7827;53.594;9.938;2022-07-23T07:20:57;152675.25;;;17.31
15453;BMP280;7827;53.594;9.938;2022-07-23T07:23:26;152677.81;;;17.32
15453;BMP280;7827;53.594;9.938;2022-07-23T07:25:54;152651.38;;;17.21
15453;BMP280;7827;53.594;9.938;2022-07-23T07:28:22;152672.72;;;17.30
15453;BMP280;7827;53.594;9.938;2022-07-23T07:30:51;152674.03;;;17.30
15453;BMP280;7827;53.594;9.938;2022-07-23T07:33:21;152692.91;;;17.38
15453;BMP280;7827;53.594;9.938;2022-07-23T07:35:49;152713.03;;;17.46
15453;BMP280;7827;53.594;9.938;2022-07-23T07:38:17;152733.19;;;17.54
15453;BMP280;7827;53.594;9.938;2022-07-23T07:40:46;152738.22;;;17.56
15453;BMP280;7827;53.594;9.938;2022-07-23T07:43:15;152769.69;;;17.68
15453;BMP280;7827;53.594;9.938;2022-07-23T07:45:43;152777.22;;;17.71
15453;BMP280;7827;53.594;9.938;2022-07-23T07:48:11;152852.81;;;18.01
15453;BMP280;7827;53.594;9.938;2022-07-23T07:50:41;152905.75;;;18.21
15453;BMP280;7827;53.594;9.938;2022-07-23T07:53:10;152937.22;;;18.34
15453;BMP280;7827;53.594;9.938;2022-07-23T07:55:39;152952.34;;;18.40
15453;BMP280;7827;53.594;9.938;2022-07-23T07:58:07;152957.41;;;18.42
15453;BMP280;7827;53.594;9.938;2022-07-23T08:00:35;152954.88;;;18.41
15453;BMP280;7827;53.594;9.938;2022-07-23T08:03:04;152942.31;;;18.36
15453;BMP280;7827;53.594;9.938;2022-07-23T08:05:33;152924.66;;;18.29
15453;BMP280;7827;53.594;9.938;2022-07-23T08:08:02;152888.13;;;18.14
15453;BMP280;7827;53.594;9.938;2022-07-23T08:10:31;152828.88;;;17.91
15453;BMP280;7827;53.594;9.938;2022-07-23T08:12:59;152794.88;;;17.78
15453;BMP280;7827;53.594;9.938;2022-07-23T08:15:29;152765.91;;;17.66
15453;BMP280;7827;53.594;9.938;2022-07-23T08:17:59;152758.34;;;17.63
15453;BMP280;7827;53.594;9.938;2022-07-23T08:20:28;152789.84;;;17.76
15453;BMP280;7827;53.594;9.938;2022-07-23T08:22:59;152821.31;;;17.88
15453;BMP280;7827;53.594;9.938;2022-07-23T08:25:31;152841.50;;;17.96
15453;BMP280;7827;53.594;9.938;2022-07-23T08:28:02;152862.88;;;18.04
15453;BMP280;7827;53.594;9.938;2022-07-23T08:30:33;152859.09;;;18.03
15453;BMP280;7827;53.594;9.938;2022-07-23T08:33:04;152857.84;;;18.03
15453;BMP280;7827;53.594;9.938;2022-07-23T08:35:37;152857.84;;;18.03
15453;BMP280;7827;53.594;9.938;2022-07-23T08:38:08;152891.88;;;18.16
15453;BMP280;7827;53.594;9.938;2022-07-23T08:40:42;152944.78;;;18.37
15453;BMP280;7827;53.594;9.938;2022-07-23T08:43:14;152972.53;;;18.48
15453;BMP280;7827;53.594;9.938;2022-07-23T08:45:46;152967.47;;;18.46
15453;BMP280;7827;53.594;9.938;2022-07-23T08:48:17;152988.91;;;18.54
15453;BMP280;7827;53.594;9.938;2022-07-23T08:50:49;153017.88;;;18.65
15453;BMP280;7827;53.594;9.938;2022-07-23T08:53:19;153056.91;;;18.81
15453;BMP280;7827;53.594;9.938;2022-07-23T08:55:51;153123.75;;;19.07
15453;BMP280;7827;53.594;9.938;2022-07-23T08:58:21;153170.44;;;19.25
15453;BMP280;7827;53.594;9.938;2022-07-23T09:00:54;153176.75;;;19.28
15453;BMP280;7827;53.594;9.938;2022-07-23T09:03:27;153176.75;;;19.28
15453;BMP280;7827;53.594;9.938;2022-07-23T09:05:56;153174.22;;;19.27
15453;BMP280;7827;53.594;9.938;2022-07-23T09:08:27;153224.59;;;19.47
15453;BMP280;7827;53.594;9.938;2022-07-23T09:11:05;153252.38;;;19.57
15453;BMP280;7827;53.594;9.938;2022-07-23T09:13:38;153310.34;;;19.80
15453;BMP280;7827;53.594;9.938;2022-07-23T09:16:11;153340.72;;;19.92
15453;BMP280;7827;53.594;9.938;2022-07-23T09:18:45;153352.06;;;19.97
15453;BMP280;7827;53.594;9.938;2022-07-23T09:21:21;153372.22;;;20.04
15453;BMP280;7827;53.594;9.938;2022-07-23T09:23:57;153393.66;;;20.13
15453;BMP280;7827;53.594;9.938;2022-07-23T09:26:34;153348.28;;;19.95
15453;BMP280;7827;53.594;9.938;2022-07-23T09:29:09;153324.22;;;19.86
15453;BMP280;7827;53.594;9.938;2022-07-23T09:31:48;153340.72;;;19.92
15453;BMP280;7827;53.594;9.938;2022-07-23T09:34:21;153357.09;;;19.99
15453;BMP280;7827;53.594;9.938;2022-07-23T09:36:52;153378.53;;;20.07
15453;BMP280;7827;53.594;9.938;2022-07-23T09:39:29;153355.84;;;19.98
15453;BMP280;7827;53.594;9.938;2022-07-23T09:42:14;153328.06;;;19.87
15453;BMP280;7827;53.594;9.938;2022-07-23T09:44:45;153272.53;;;19.65
15453;BMP280;7827;53.594;9.938;2022-07-23T09:47:14;153267.50;;;19.63
15453;BMP280;7827;53.594;9.938;2022-07-23T09:49:59;153262.47;;;19.61
15453;BMP280;7827;53.594;9.938;2022-07-23T09:52:30;153267.50;;;19.63
15453;BMP280;7827;53.594;9.938;2022-07-23T09:55:05;153247.34;;;19.55
15453;BMP280;7827;53.594;9.938;2022-07-23T09:57:35;153199.44;;;19.37
15453;BMP280;7827;53.594;9.938;2022-07-23T10:00:06;153183.03;;;19.30
15453;BMP280;7827;53.594;9.938;2022-07-23T10:02:38;153155.31;;;19.19
15453;BMP280;7827;53.594;9.938;2022-07-23T10:05:26;153169.19;;;19.25
15453;BMP280;7827;53.594;9.938;2022-07-23T10:08:33;153145.22;;;19.15
15453;BMP280;7827;53.594;9.938;2022-07-23T10:11:20;153128.84;;;19.09
15453;BMP280;7827;53.594;9.938;2022-07-23T10:14:02;153131.31;;;19.10
15453;BMP280;7827;53.594;9.938;2022-07-23T10:16:50;153207.00;;;19.40
15453;BMP280;7827;53.594;9.938;2022-07-23T10:19:19;153254.91;;;19.58
15453;BMP280;7827;53.594;9.938;2022-07-23T10:21:55;153264.97;;;19.62
15453;BMP280;7827;53.594;9.938;2022-07-23T10:24:49;153293.97;;;19.74
15453;BMP280;7827;53.594;9.938;2022-07-23T10:27:58;153311.63;;;19.81
15453;BMP280;7827;53.594;9.938;2022-07-23T10:30:40;153312.88;;;19.81
15453;BMP280;7827;53.594;9.938;2022-07-23T10:33:30;153323.00;;;19.85
15453;BMP280;7827;53.594;9.938;2022-07-23T10:36:08;153345.72;;;19.94
15453;BMP280;7827;53.594;9.938;2022-07-23T10:38:48;153382.31;;;20.08
15453;BMP280;7827;53.594;9.938;2022-07-23T10:41:32;153428.94;;;20.27
15453;BMP280;7827;53.594;9.938;2022-07-23T10:44:09;153454.19;;;20.37
15453;BMP280;7827;53.594;9.938;2022-07-23T10:46:59;153474.38;;;20.45
15453;BMP280;7827;53.594;9.938;2022-07-23T10:49:53;153522.31;;;20.63
15453;BMP280;7827;53.594;9.938;2022-07-23T10:52:26;153519.78;;;20.62
15453;BMP280;7827;53.594;9.938;2022-07-23T10:55:38;153546.34;;;20.73
15453;BMP280;7827;53.594;9.938;2022-07-23T10:57:50;153550.16;;;20.74
15453;BMP280;7827;53.594;9.938;2022-07-23T11:00:23;153547.59;;;20.73
15453;BMP280;7827;53.594;9.938;2022-07-23T11:02:53;153531.16;;;20.67
15453;BMP280;7827;53.594;9.938;2022-07-23T11:05:25;153483.22;;;20.48
15453;BMP280;7827;53.594;9.938;2022-07-23T11:08:24;153431.50;;;20.28
15453;BMP280;7827;53.594;9.938;2022-07-23T11:11:08;153439.06;;;20.31
15453;BMP280;7827;53.594;9.938;2022-07-23T11:13:41;153436.53;;;20.30
15453;BMP280;7827;53.594;9.938;2022-07-23T11:16:25;153426.41;;;20.26
15453;BMP280;7827;53.594;9.938;2022-07-23T11:19:02;153398.69;;;20.15
15453;BMP280;7827;53.594;9.938;2022-07-23T11:21:53;153417.59;;;20.22
15453;BMP280;7827;53.594;9.938;2022-07-23T11:24:24;153426.41;;;20.26
15453;BMP280;7827;53.594;9.938;2022-07-23T11:27:00;153425.19;;;20.25
15453;BMP280;7827;53.594;9.938;2022-07-23T11:29:43;153431.50;;;20.28
15453;BMP280;7827;53.594;9.938;2022-07-23T11:32:38;153406.25;;;20.18
15453;BMP280;7827;53.594;9.938;2022-07-23T11:35:25;153402.47;;;20.16
15453;BMP280;7827;53.594;9.938;2022-07-23T11:38:05;153389.88;;;20.11
15453;BMP280;7827;53.594;9.938;2022-07-23T11:40:35;153360.88;;;20.00
15453;BMP280;7827;53.594;9.938;2022-07-23T11:43:06;153314.13;;;19.82
15453;BMP280;7827;53.594;9.938;2022-07-23T11:45:44;153293.97;;;19.74
15453;BMP280;7827;53.594;9.938;2022-07-23T11:48:19;153334.38;;;19.90
15453;BMP280;7827;53.594;9.938;2022-07-23T11:50:48;153358.31;;;19.99
15453;BMP280;7827;53.594;9.938;2022-07-23T11:53:23;153384.81;;;20.09
15453;BMP280;7827;53.594;9.938;2022-07-23T11:55:52;153383.56;;;20.09
15453;BMP280;7827;53.594;9.938;2022-07-23T11:58:21;153350.75;;;19.96
15453;BMP280;7827;53.594;9.938;2022-07-23T12:00:50;153312.88;;;19.81
15453;BMP280;7827;53.594;9.938;2022-07-23T12:03:19;153297.75;;;19.75
15453;BMP280;7827;53.594;9.938;2022-07-23T12:05:48;153282.63;;;19.69
15453;BMP280;7827;53.594;9.938;2022-07-23T12:08:17;153306.56;;;19.79
15453;BMP280;7827;53.594;9.938;2022-07-23T12:10:47;153334.38;;;19.90
15453;BMP280;7827;53.594;9.938;2022-07-23T12:13:18;153345.72;;;19.94
15453;BMP280;7827;53.594;9.938;2022-07-23T12:15:49;153336.88;;;19.91
15453;BMP280;7827;53.594;9.938;2022-07-23T12:18:22;153283.88;;;19.70
15453;BMP280;7827;53.594;9.938;2022-07-23T12:20:53;153256.16;;;19.59
15453;BMP280;7827;53.594;9.938;2022-07-23T12:23:25;153249.84;;;19.56
15453;BMP280;7827;53.594;9.938;2022-07-23T12:26:02;153280.09;;;19.68
15453;BMP280;7827;53.594;9.938;2022-07-23T12:28:33;153297.75;;;19.75
15453;BMP280;7827;53.594;9.938;2022-07-23T12:31:05;153339.41;;;19.92
15453;BMP280;7827;53.594;9.938;2022-07-23T12:33:38;153350.75;;;19.96
15453;BMP280;7827;53.594;9.938;2022-07-23T12:36:08;153399.94;;;20.15
15453;BMP280;7827;53.594;9.938;2022-07-23T12:38:41;153444.09;;;20.33
15453;BMP280;7827;53.594;9.938;2022-07-23T12:41:11;153441.59;;;20.32
15453;BMP280;7827;53.594;9.938;2022-07-23T12:43:42;153434.03;;;20.29
15453;BMP280;7827;53.594;9.938;2022-07-23T12:46:14;153426.41;;;20.26
15453;BMP280;7827;53.594;9.938;2022-07-23T12:48:52;153407.50;;;20.18
15453;BMP280;7827;53.594;9.938;2022-07-23T12:51:23;153416.38;;;20.22
15453;BMP280;7827;53.594;9.938;2022-07-23T12:53:55;153451.66;;;20.36
15453;BMP280;7827;53.594;9.938;2022-07-23T12:56:30;153463.00;;;20.40
15453;BMP280;7827;53.594;9.938;2022-07-23T12:59:06;153484.47;;;20.49
15453;BMP280;7827;53.594;9.938;2022-07-23T13:01:39;153460.53;;;20.39
15453;BMP280;7827;53.594;9.938;2022-07-23T13:04:12;153423.94;;;20.25
15453;BMP280;7827;53.594;9.938;2022-07-23T13:06:44;153386.09;;;20.10
15453;BMP280;7827;53.594;9.938;2022-07-23T13:09:16;153415.06;;;20.21
15453;BMP280;7827;53.594;9.938;2022-07-23T13:11:48;153473.13;;;20.44
15453;BMP280;7827;53.594;9.938;2022-07-23T13:14:18;153565.28;;;20.80
15453;BMP280;7827;53.594;9.938;2022-07-23T13:16:48;153609.41;;;20.98
15453;BMP280;7827;53.594;9.938;2022-07-23T13:19:18;153586.69;;;20.89
15453;BMP280;7827;53.594;9.938;2022-07-23T13:21:49;153548.84;;;20.74
15453;BMP280;7827;53.594;9.938;2022-07-23T13:24:17;153487.00;;;20.50
15453;BMP280;7827;53.594;9.938;2022-07-23T13:26:47;153449.16;;;20.35
15453;BMP280;7827;53.594;9.938;2022-07-23T13:29:18;153428.94;;;20.27
15453;BMP280;7827;53.594;9.938;2022-07-23T13:31:47;153398.69;;;20.15
15453;BMP280;7827;53.594;9.938;2022-07-23T13:34:17;153410.03;;;20.19
15453;BMP280;7827;53.594;9.938;2022-07-23T13:36:46;153403.72;;;20.17
15453;BMP280;7827;53.594;9.938;2022-07-23T13:39:14;153406.25;;;20.18
15453;BMP280;7827;53.594;9.938;2022-07-23T13:41:43;153405.00;;;20.17
15453;BMP280;7827;53.594;9.938;2022-07-23T13:44:18;153408.78;;;20.19
15453;BMP280;7827;53.594;9.938;2022-07-23T13:46:49;153422.63;;;20.24
15453;BMP280;7827;53.594;9.938;2022-07-23T13:49:17;153444.09;;;20.33
15453;BMP280;7827;53.594;9.938;2022-07-23T13:51:48;153461.75;;;20.40
15453;BMP280;7827;53.594;9.938;2022-07-23T13:54:16;153436.53;;;20.30
15453;BMP280;7827;53.594;9.938;2022-07-23T13:56:45;153398.69;;;20.15
15453;BMP280;7827;53.594;9.938;2022-07-23T13:59:14;153406.25;;;20.18
15453;BMP280;7827;53.594;9.938;2022-07-23T14:01:44;153345.72;;;19.94
15453;BMP280;7827;53.594;9.938;2022-07-23T14:04:34;153345.72;;;19.94
15453;BMP280;7827;53.594;9.938;2022-07-23T14:07:02;153367.19;;;20.03
15453;BMP280;7827;53.594;9.938;2022-07-23T14:09:31;153373.44;;;20.05
15453;BMP280;7827;53.594;9.938;2022-07-23T14:12:00;153396.16;;;20.14
15453;BMP280;7827;53.594;9.938;2022-07-23T14:14:29;153402.47;;;20.16
15453;BMP280;7827;53.594;9.938;2022-07-23T14:16:58;153428.94;;;20.27
15453;BMP280;7827;53.594;9.938;2022-07-23T14:19:28;153451.66;;;20.36
15453;BMP280;7827;53.594;9.938;2022-07-23T14:21:57;153498.34;;;20.54
15453;BMP280;7827;53.594;9.938;2022-07-23T14:24:25;153489.50;;;20.51
15453;BMP280;7827;53.594;9.938;2022-07-23T14:27:00;153452.97;;;20.36
15453;BMP280;7827;53.594;9.938;2022-07-23T14:29:30;153449.16;;;20.35
15453;BMP280;7827;53.594;9.938;2022-07-23T14:32:02;153446.63;;;20.34
15453;BMP280;7827;53.594;9.938;2022-07-23T14:34:30;153408.78;;;20.19